| time (UTC) | temp C | wind direction | speed KPH | gust KPH | rain 1hr cm | rain 24hr cm | rain mn cm | humidity % | barometer mb |
| 20260503050003 | 18 | 301 | 12.9 | 24.1 | 0.00 | 0.00 | 0.00 | 36 | 1014.1 |
| 20260503044525 | 18 | 285 | 6.4 | 25.7 | 0.00 | 0.00 | 0.00 | 38 | 1014.1 |
| 20260503043003 | 18 | 299 | 20.9 | 35.4 | 0.00 | 0.00 | 0.00 | 38 | 1013.6 |
| 20260503041503 | 17 | 301 | 19.3 | 35.4 | 0.00 | 0.00 | 0.00 | 40 | 1013.2 |
| 20260503040004 | 16 | 286 | 12.9 | 22.5 | 0.00 | 0.00 | 0.00 | 45 | 1013.8 |
| 20260503034503 | 16 | 286 | 14.5 | 25.7 | 0.00 | 0.00 | 0.00 | 47 | 1014.0 |
| 20260503033003 | 16 | 280 | 14.5 | 27.4 | 0.00 | 0.00 | 0.00 | 46 | 1013.9 |
| 20260503031503 | 16 | 297 | 19.3 | 38.6 | 0.00 | 0.00 | 0.00 | 45 | 1013.7 |
| 20260503030003 | 16 | 294 | 19.3 | 37.0 | 0.00 | 0.00 | 0.00 | 49 | 1013.6 |
| 20260503024503 | 16 | 273 | 20.9 | 33.8 | 0.00 | 0.00 | 0.00 | 46 | 1013.6 |
| 20260503023024 | 17 | 266 | 22.5 | 40.2 | 0.00 | 0.00 | 0.00 | 43 | 1013.4 |
| 20260503021503 | 18 | 280 | 14.5 | 40.2 | 0.00 | 0.00 | 0.00 | 37 | 1013.0 |
| 20260503020003 | 18 | 274 | 8.0 | 16.1 | 0.00 | 0.00 | 0.00 | 35 | 1012.7 |
| 20260503014503 | 19 | 358 | 3.2 | 6.4 | 0.00 | 0.00 | 0.00 | 33 | 1012.5 |
| 20260503013003 | 20 | 319 | 3.2 | 6.4 | 0.00 | 0.00 | 0.00 | 31 | 1012.4 |
| 20260503011504 | 20 | 20 | 9.7 | 29.0 | 0.00 | 0.00 | 0.00 | 29 | 1012.3 |
| 20260503010003 | 20 | 227 | 8.0 | 19.3 | 0.00 | 0.00 | 0.00 | 32 | 1013.1 |
| 20260503004503 | 20 | 255 | 19.3 | 43.5 | 0.00 | 0.00 | 0.00 | 33 | 1013.3 |
| 20260503003024 | 21 | 256 | 20.9 | 45.1 | 0.00 | 0.00 | 0.00 | 29 | 1012.6 |
| 20260503001524 | 22 | 237 | 12.9 | 30.6 | 0.00 | 0.00 | 0.00 | 23 | 1012.0 |
| 20260503000003 | 22 | 242 | 14.5 | 29.0 | 0.00 | 0.00 | 0.00 | 22 | 1011.8 |
| 20260502234503 | 22 | 282 | 9.7 | 24.1 | 0.00 | 0.00 | 0.00 | 20 | 1011.5 |
| 20260502233003 | 23 | 273 | 12.9 | 27.4 | 0.00 | 0.00 | 0.00 | 20 | 1011.7 |
| 20260502231503 | 23 | 277 | 6.4 | 12.9 | 0.00 | 0.00 | 0.00 | 22 | 1011.8 |
| 20260502230003 | 23 | 252 | 4.8 | 14.5 | 0.00 | 0.00 | 0.00 | 21 | 1012.1 |
| 20260502224503 | 23 | 280 | 3.2 | 6.4 | 0.00 | 0.00 | 0.00 | 21 | 1012.3 |
| 20260502223003 | 23 | 273 | 3.2 | 8.0 | 0.00 | 0.00 | 0.00 | 21 | 1012.6 |
| 20260502221503 | 23 | 298 | 3.2 | 9.7 | 0.00 | 0.00 | 0.00 | 20 | 1012.8 |
| 20260502220003 | 23 | 281 | 6.4 | 12.9 | 0.00 | 0.00 | 0.00 | 20 | 1013.0 |
| 20260502214503 | 23 | 306 | 6.4 | 12.9 | 0.00 | 0.00 | 0.00 | 20 | 1013.0 |
| 20260502213024 | 23 | 290 | 4.8 | 12.9 | 0.00 | 0.00 | 0.00 | 20 | 1013.1 |
| 20260502211503 | 23 | 233 | 4.8 | 9.7 | 0.00 | 0.00 | 0.00 | 19 | 1013.2 |
| 20260502210024 | 23 | 293 | 6.4 | 12.9 | 0.00 | 0.00 | 0.00 | 19 | 1013.3 |
| 20260502204524 | 22 | 218 | 4.8 | 16.1 | 0.00 | 0.00 | 0.00 | 20 | 1013.3 |
| 20260502203003 | 22 | 227 | 6.4 | 11.3 | 0.00 | 0.00 | 0.00 | 19 | 1013.4 |
| 20260502201503 | 23 | 215 | 8.0 | 20.9 | 0.00 | 0.00 | 0.00 | 19 | 1013.4 |
| 20260502200024 | 23 | 264 | 6.4 | 16.1 | 0.00 | 0.00 | 0.00 | 20 | 1013.6 |
| 20260502194503 | 22 | 251 | 6.4 | 16.1 | 0.00 | 0.00 | 0.00 | 20 | 1013.6 |
| 20260502193003 | 22 | 229 | 8.0 | 16.1 | 0.00 | 0.00 | 0.00 | 20 | 1013.8 |
| 20260502191503 | 22 | 241 | 4.8 | 12.9 | 0.00 | 0.00 | 0.00 | 19 | 1014.1 |
| 20260502190004 | 22 | 237 | 3.2 | 8.0 | 0.00 | 0.00 | 0.00 | 17 | 1014.1 |
| 20260502184503 | 21 | 224 | 6.4 | 12.9 | 0.00 | 0.00 | 0.00 | 17 | 1014.3 |
| 20260502183024 | 22 | 244 | 3.2 | 9.7 | 0.00 | 0.00 | 0.00 | 16 | 1014.4 |
| 20260502181503 | 22 | 25 | 4.8 | 12.9 | 0.00 | 0.00 | 0.00 | 15 | 1014.4 |
| 20260502163003 | 18 | 26 | 9.7 | 17.7 | 0.00 | 0.00 | 0.00 | 19 | 1014.5 |
| 20260502161503 | 17 | 34 | 9.7 | 20.9 | 0.00 | 0.00 | 0.00 | 21 | 1014.5 |
| 20260502151503 | 13 | 10 | 11.3 | 20.9 | 0.00 | 0.00 | 0.00 | 25 | 1014.1 |
| 20260502123025 | 10 | 14 | 8.0 | 14.5 | 0.00 | 0.00 | 0.00 | 31 | 1013.3 |
| 20260502121503 | 10 | 15 | 8.0 | 14.5 | 0.00 | 0.00 | 0.00 | 30 | 1013.2 |
| 20260502114524 | 10 | 14 | 12.9 | 19.3 | 0.00 | 0.00 | 0.00 | 28 | 1013.3 |
| 20260502113004 | 11 | 12 | 11.3 | 19.3 | 0.00 | 0.00 | 0.00 | 28 | 1013.2 |
| 20260502111524 | 11 | 17 | 8.0 | 14.5 | 0.00 | 0.00 | 0.00 | 28 | 1013.3 |
| 20260502110003 | 11 | 5 | 12.9 | 19.3 | 0.00 | 0.00 | 0.00 | 28 | 1013.3 |
| 20260502104503 | 11 | 13 | 9.7 | 16.1 | 0.00 | 0.00 | 0.00 | 28 | 1013.2 |
| 20260502103003 | 11 | 12 | 9.7 | 17.7 | 0.00 | 0.00 | 0.00 | 28 | 1013.1 |
| 20260502101503 | 11 | 9 | 11.3 | 17.7 | 0.00 | 0.00 | 0.00 | 29 | 1013.2 |
| 20260502091524 | 12 | 11 | 8.0 | 14.5 | 0.00 | 0.00 | 0.00 | 26 | 1013.5 |
| 20260502071524 | 15 | 82 | 4.8 | 9.7 | 0.00 | 0.00 | 0.00 | 21 | 1014.1 |
| 20260502070024 | 15 | 347 | 4.8 | 9.7 | 0.00 | 0.00 | 0.00 | 21 | 1013.9 |
| 20260502064503 | 15 | 54 | 9.7 | 19.3 | 0.00 | 0.00 | 0.00 | 19 | 1013.9 |
| 20260502063003 | 15 | 66 | 6.4 | 12.9 | 0.00 | 0.00 | 0.00 | 20 | 1013.9 |
| 20260502061503 | 15 | 35 | 6.4 | 12.9 | 0.00 | 0.00 | 0.00 | 25 | 1013.9 |
| 20260502060003 | 15 | 21 | 4.8 | 9.7 | 0.00 | 0.00 | 0.00 | 25 | 1013.9 |
| 20260502054524 | 16 | 25 | 4.8 | 9.7 | 0.00 | 0.00 | 0.00 | 26 | 1014.0 |
| 20260502053024 | 16 | 36 | 6.4 | 11.3 | 0.00 | 0.00 | 0.00 | 22 | 1014.0 |
| 20260502051503 | 17 | 71 | 6.4 | 12.9 | 0.00 | 0.00 | 0.00 | 18 | 1013.9 |